sensor_id;sensor_type;location;lat;lon;timestamp;temperature;humidity
71668;DHT22;59504;54.806;9.640;2023-09-19T00:00:47;16.90;75.60
71668;DHT22;59504;54.806;9.640;2023-09-19T00:03:09;16.90;75.60
71668;DHT22;59504;54.806;9.640;2023-09-19T00:05:19;16.90;75.50
71668;DHT22;59504;54.806;9.640;2023-09-19T00:07:24;16.90;75.80
71668;DHT22;59504;54.806;9.640;2023-09-19T00:09:28;16.90;76.00
71668;DHT22;59504;54.806;9.640;2023-09-19T00:11:28;16.90;76.00
71668;DHT22;59504;54.806;9.640;2023-09-19T00:13:29;16.90;76.10
71668;DHT22;59504;54.806;9.640;2023-09-19T00:15:53;16.90;76.10
71668;DHT22;59504;54.806;9.640;2023-09-19T00:18:16;16.80;76.20
71668;DHT22;59504;54.806;9.640;2023-09-19T00:20:39;16.80;76.20
71668;DHT22;59504;54.806;9.640;2023-09-19T00:22:59;16.80;76.30
71668;DHT22;59504;54.806;9.640;2023-09-19T00:25:26;16.90;76.50
71668;DHT22;59504;54.806;9.640;2023-09-19T00:27:54;16.80;76.60
71668;DHT22;59504;54.806;9.640;2023-09-19T00:30:15;16.90;76.60
71668;DHT22;59504;54.806;9.640;2023-09-19T00:32:42;16.80;76.80
71668;DHT22;59504;54.806;9.640;2023-09-19T00:35:02;16.80;76.80
71668;DHT22;59504;54.806;9.640;2023-09-19T00:37:23;16.80;76.90
71668;DHT22;59504;54.806;9.640;2023-09-19T00:39:44;16.70;76.80
71668;DHT22;59504;54.806;9.640;2023-09-19T00:41:54;16.80;76.90
71668;DHT22;59504;54.806;9.640;2023-09-19T00:44:15;16.80;76.90
71668;DHT22;59504;54.806;9.640;2023-09-19T00:46:36;16.80;76.80
71668;DHT22;59504;54.806;9.640;2023-09-19T00:48:40;16.80;76.90
71668;DHT22;59504;54.806;9.640;2023-09-19T00:51:02;16.70;76.70
71668;DHT22;59504;54.806;9.640;2023-09-19T00:53:23;16.70;76.80
71668;DHT22;59504;54.806;9.640;2023-09-19T00:55:44;16.70;76.80
71668;DHT22;59504;54.806;9.640;2023-09-19T00:58:05;16.70;76.80
71668;DHT22;59504;54.806;9.640;2023-09-19T01:00:27;16.70;76.80
71668;DHT22;59504;54.806;9.640;2023-09-19T01:02:54;16.60;76.70
71668;DHT22;59504;54.806;9.640;2023-09-19T01:05:14;16.60;76.80
71668;DHT22;59504;54.806;9.640;2023-09-19T01:09:42;16.60;77.70
71668;DHT22;59504;54.806;9.640;2023-09-19T01:17:16;16.60;77.00
71668;DHT22;59504;54.806;9.640;2023-09-19T01:28:30;16.50;77.00
71668;DHT22;59504;54.806;9.640;2023-09-19T01:31:24;16.50;77.10
71668;DHT22;59504;54.806;9.640;2023-09-19T01:34:01;16.40;76.90
71668;DHT22;59504;54.806;9.640;2023-09-19T01:39:23;16.40;77.20
71668;DHT22;59504;54.806;9.640;2023-09-19T01:41:51;16.40;77.30
71668;DHT22;59504;54.806;9.640;2023-09-19T01:44:38;16.30;77.20
71668;DHT22;59504;54.806;9.640;2023-09-19T01:47:02;16.30;77.00
71668;DHT22;59504;54.806;9.640;2023-09-19T01:49:33;16.30;77.10
71668;DHT22;59504;54.806;9.640;2023-09-19T01:52:11;16.30;77.00
71668;DHT22;59504;54.806;9.640;2023-09-19T01:54:18;16.30;76.90
71668;DHT22;59504;54.806;9.640;2023-09-19T01:56:24;16.20;76.90
71668;DHT22;59504;54.806;9.640;2023-09-19T01:58:46;16.20;76.90
71668;DHT22;59504;54.806;9.640;2023-09-19T02:01:08;16.20;76.80
71668;DHT22;59504;54.806;9.640;2023-09-19T02:03:31;16.10;76.70
71668;DHT22;59504;54.806;9.640;2023-09-19T02:05:52;16.10;76.80
71668;DHT22;59504;54.806;9.640;2023-09-19T02:08:16;16.00;76.70
71668;DHT22;59504;54.806;9.640;2023-09-19T02:10:37;16.00;76.70
71668;DHT22;59504;54.806;9.640;2023-09-19T02:12:58;16.00;76.60
71668;DHT22;59504;54.806;9.640;2023-09-19T02:15:22;15.90;76.70
71668;DHT22;59504;54.806;9.640;2023-09-19T02:17:43;15.90;76.60
71668;DHT22;59504;54.806;9.640;2023-09-19T02:20:04;15.90;76.60
71668;DHT22;59504;54.806;9.640;2023-09-19T02:22:30;15.80;76.40
71668;DHT22;59504;54.806;9.640;2023-09-19T02:24:39;15.90;76.70
71668;DHT22;59504;54.806;9.640;2023-09-19T02:26:41;15.80;76.40
71668;DHT22;59504;54.806;9.640;2023-09-19T02:29:02;15.80;76.40
71668;DHT22;59504;54.806;9.640;2023-09-19T02:31:25;15.70;76.20
71668;DHT22;59504;54.806;9.640;2023-09-19T02:33:45;15.70;76.30
71668;DHT22;59504;54.806;9.640;2023-09-19T02:36:09;15.70;76.30
71668;DHT22;59504;54.806;9.640;2023-09-19T02:38:33;15.60;76.30
71668;DHT22;59504;54.806;9.640;2023-09-19T02:40:54;15.50;76.30
71668;DHT22;59504;54.806;9.640;2023-09-19T02:43:15;15.60;76.40
71668;DHT22;59504;54.806;9.640;2023-09-19T02:45:40;15.60;76.40
71668;DHT22;59504;54.806;9.640;2023-09-19T02:47:40;15.50;76.50
71668;DHT22;59504;54.806;9.640;2023-09-19T02:50:01;15.50;76.50
71668;DHT22;59504;54.806;9.640;2023-09-19T02:52:30;15.50;76.50
71668;DHT22;59504;54.806;9.640;2023-09-19T02:54:46;15.50;76.50
71668;DHT22;59504;54.806;9.640;2023-09-19T02:57:09;15.50;76.40
71668;DHT22;59504;54.806;9.640;2023-09-19T02:59:31;15.50;76.40
71668;DHT22;59504;54.806;9.640;2023-09-19T03:01:52;15.50;76.20
71668;DHT22;59504;54.806;9.640;2023-09-19T03:04:15;15.50;76.30
71668;DHT22;59504;54.806;9.640;2023-09-19T03:06:40;15.50;76.10
71668;DHT22;59504;54.806;9.640;2023-09-19T03:09:01;15.40;76.00
71668;DHT22;59504;54.806;9.640;2023-09-19T03:11:23;15.40;75.90
71668;DHT22;59504;54.806;9.640;2023-09-19T03:13:44;15.30;75.90
71668;DHT22;59504;54.806;9.640;2023-09-19T03:15:45;15.40;75.80
71668;DHT22;59504;54.806;9.640;2023-09-19T03:17:48;15.40;75.70
71668;DHT22;59504;54.806;9.640;2023-09-19T03:20:08;15.30;75.50
71668;DHT22;59504;54.806;9.640;2023-09-19T03:22:37;15.30;75.40
71668;DHT22;59504;54.806;9.640;2023-09-19T03:25:03;15.30;75.40
71668;DHT22;59504;54.806;9.640;2023-09-19T03:27:28;15.20;75.20
71668;DHT22;59504;54.806;9.640;2023-09-19T03:29:48;15.10;75.20
71668;DHT22;59504;54.806;9.640;2023-09-19T03:32:09;15.10;75.20
71668;DHT22;59504;54.806;9.640;2023-09-19T03:34:13;15.10;75.20
71668;DHT22;59504;54.806;9.640;2023-09-19T03:36:13;15.10;75.10
71668;DHT22;59504;54.806;9.640;2023-09-19T03:38:14;15.00;75.10
71668;DHT22;59504;54.806;9.640;2023-09-19T03:40:15;15.00;75.10
71668;DHT22;59504;54.806;9.640;2023-09-19T03:42:16;15.00;74.90
71668;DHT22;59504;54.806;9.640;2023-09-19T03:44:17;15.00;74.90
71668;DHT22;59504;54.806;9.640;2023-09-19T03:46:17;14.90;74.70
71668;DHT22;59504;54.806;9.640;2023-09-19T03:48:18;14.90;74.50
71668;DHT22;59504;54.806;9.640;2023-09-19T03:50:19;14.80;74.40
71668;DHT22;59504;54.806;9.640;2023-09-19T03:52:20;14.70;74.30
71668;DHT22;59504;54.806;9.640;2023-09-19T03:54:21;14.80;74.30
71668;DHT22;59504;54.806;9.640;2023-09-19T03:56:30;14.70;74.20
71668;DHT22;59504;54.806;9.640;2023-09-19T03:58:34;14.60;74.10
71668;DHT22;59504;54.806;9.640;2023-09-19T04:00:39;14.50;74.10
71668;DHT22;59504;54.806;9.640;2023-09-19T04:02:40;14.50;74.10
71668;DHT22;59504;54.806;9.640;2023-09-19T04:04:43;14.30;74.00
71668;DHT22;59504;54.806;9.640;2023-09-19T04:06:44;14.30;74.10
71668;DHT22;59504;54.806;9.640;2023-09-19T04:09:05;14.20;74.00
71668;DHT22;59504;54.806;9.640;2023-09-19T04:11:07;14.30;74.20
71668;DHT22;59504;54.806;9.640;2023-09-19T04:13:28;14.10;74.10
71668;DHT22;59504;54.806;9.640;2023-09-19T04:15:48;14.10;74.30
71668;DHT22;59504;54.806;9.640;2023-09-19T04:18:09;14.10;74.30
71668;DHT22;59504;54.806;9.640;2023-09-19T04:20:09;14.00;74.30
71668;DHT22;59504;54.806;9.640;2023-09-19T04:22:32;13.90;74.20
71668;DHT22;59504;54.806;9.640;2023-09-19T04:24:53;13.90;74.40
71668;DHT22;59504;54.806;9.640;2023-09-19T04:27:13;13.80;74.40
71668;DHT22;59504;54.806;9.640;2023-09-19T04:29:16;13.80;74.40
71668;DHT22;59504;54.806;9.640;2023-09-19T04:31:19;13.70;74.30
71668;DHT22;59504;54.806;9.640;2023-09-19T04:33:20;13.80;74.40
71668;DHT22;59504;54.806;9.640;2023-09-19T04:35:22;13.70;74.50
71668;DHT22;59504;54.806;9.640;2023-09-19T04:37:42;13.60;74.50
71668;DHT22;59504;54.806;9.640;2023-09-19T04:40:03;13.70;74.60
71668;DHT22;59504;54.806;9.640;2023-09-19T04:42:26;13.50;74.60
71668;DHT22;59504;54.806;9.640;2023-09-19T04:44:35;13.60;74.70
71668;DHT22;59504;54.806;9.640;2023-09-19T04:46:58;13.50;74.70
71668;DHT22;59504;54.806;9.640;2023-09-19T04:49:19;13.50;74.80
71668;DHT22;59504;54.806;9.640;2023-09-19T04:51:40;13.50;74.90
71668;DHT22;59504;54.806;9.640;2023-09-19T04:54:01;13.40;74.80
71668;DHT22;59504;54.806;9.640;2023-09-19T04:56:21;13.40;74.90
71668;DHT22;59504;54.806;9.640;2023-09-19T04:58:43;13.40;74.90
71668;DHT22;59504;54.806;9.640;2023-09-19T05:01:04;13.30;74.90
71668;DHT22;59504;54.806;9.640;2023-09-19T05:03:25;13.30;74.90
71668;DHT22;59504;54.806;9.640;2023-09-19T05:05:45;13.30;74.90
71668;DHT22;59504;54.806;9.640;2023-09-19T05:08:06;13.20;74.90
71668;DHT22;59504;54.806;9.640;2023-09-19T05:10:28;13.30;75.00
71668;DHT22;59504;54.806;9.640;2023-09-19T05:12:52;13.20;74.90
71668;DHT22;59504;54.806;9.640;2023-09-19T05:15:13;13.20;75.00
71668;DHT22;59504;54.806;9.640;2023-09-19T05:17:35;13.20;75.10
71668;DHT22;59504;54.806;9.640;2023-09-19T05:19:55;13.20;75.10
71668;DHT22;59504;54.806;9.640;2023-09-19T05:22:16;13.10;75.10
71668;DHT22;59504;54.806;9.640;2023-09-19T05:24:38;13.10;75.10
71668;DHT22;59504;54.806;9.640;2023-09-19T05:26:39;13.10;75.30
71668;DHT22;59504;54.806;9.640;2023-09-19T05:28:40;13.20;75.40
71668;DHT22;59504;54.806;9.640;2023-09-19T05:30:41;13.20;75.50
71668;DHT22;59504;54.806;9.640;2023-09-19T05:33:05;13.00;75.40
71668;DHT22;59504;54.806;9.640;2023-09-19T05:35:26;13.10;75.50
71668;DHT22;59504;54.806;9.640;2023-09-19T05:37:53;13.20;75.70
71668;DHT22;59504;54.806;9.640;2023-09-19T05:40:15;13.10;75.80
71668;DHT22;59504;54.806;9.640;2023-09-19T05:42:35;13.30;76.00
71668;DHT22;59504;54.806;9.640;2023-09-19T05:44:56;13.30;76.90
71668;DHT22;59504;54.806;9.640;2023-09-19T05:47:17;13.10;75.80
71668;DHT22;59504;54.806;9.640;2023-09-19T05:49:18;13.30;75.80
71668;DHT22;59504;54.806;9.640;2023-09-19T05:51:22;13.20;75.60
71668;DHT22;59504;54.806;9.640;2023-09-19T05:53:43;13.20;75.60
71668;DHT22;59504;54.806;9.640;2023-09-19T05:56:03;13.10;75.50
71668;DHT22;59504;54.806;9.640;2023-09-19T05:58:24;13.10;75.60
71668;DHT22;59504;54.806;9.640;2023-09-19T06:00:45;13.10;75.70
71668;DHT22;59504;54.806;9.640;2023-09-19T06:03:07;13.20;75.80
71668;DHT22;59504;54.806;9.640;2023-09-19T06:05:28;13.10;75.70
71668;DHT22;59504;54.806;9.640;2023-09-19T06:07:50;13.00;75.70
71668;DHT22;59504;54.806;9.640;2023-09-19T06:10:12;13.10;75.80
71668;DHT22;59504;54.806;9.640;2023-09-19T06:12:13;13.00;75.80
71668;DHT22;59504;54.806;9.640;2023-09-19T06:14:17;13.10;75.80
71668;DHT22;59504;54.806;9.640;2023-09-19T06:16:18;13.00;75.80
71668;DHT22;59504;54.806;9.640;2023-09-19T06:18:40;13.00;75.90
71668;DHT22;59504;54.806;9.640;2023-09-19T06:21:00;13.00;75.90
71668;DHT22;59504;54.806;9.640;2023-09-19T06:23:25;13.00;76.00
71668;DHT22;59504;54.806;9.640;2023-09-19T06:25:46;13.00;76.00
71668;DHT22;59504;54.806;9.640;2023-09-19T06:28:07;13.00;76.40
71668;DHT22;59504;54.806;9.640;2023-09-19T06:30:28;13.00;76.30
71668;DHT22;59504;54.806;9.640;2023-09-19T06:32:49;13.00;76.50
71668;DHT22;59504;54.806;9.640;2023-09-19T06:35:15;13.10;77.30
71668;DHT22;59504;54.806;9.640;2023-09-19T06:37:16;12.90;76.50
71668;DHT22;59504;54.806;9.640;2023-09-19T06:39:17;13.10;76.70
71668;DHT22;59504;54.806;9.640;2023-09-19T06:41:20;13.20;76.90
71668;DHT22;59504;54.806;9.640;2023-09-19T06:43:45;13.00;77.00
71668;DHT22;59504;54.806;9.640;2023-09-19T06:46:05;13.00;76.90
71668;DHT22;59504;54.806;9.640;2023-09-19T06:48:18;13.10;77.20
71668;DHT22;59504;54.806;9.640;2023-09-19T06:50:39;13.00;77.20
71668;DHT22;59504;54.806;9.640;2023-09-19T06:53:01;13.20;77.50
71668;DHT22;59504;54.806;9.640;2023-09-19T06:55:22;13.10;77.60
71668;DHT22;59504;54.806;9.640;2023-09-19T06:57:48;13.20;77.60
71668;DHT22;59504;54.806;9.640;2023-09-19T07:00:09;13.20;77.60
71668;DHT22;59504;54.806;9.640;2023-09-19T07:02:16;13.10;77.90
71668;DHT22;59504;54.806;9.640;2023-09-19T07:04:36;13.20;78.00
71668;DHT22;59504;54.806;9.640;2023-09-19T07:06:57;13.20;78.10
71668;DHT22;59504;54.806;9.640;2023-09-19T07:08:58;13.20;78.10
71668;DHT22;59504;54.806;9.640;2023-09-19T07:11:19;13.30;78.30
71668;DHT22;59504;54.806;9.640;2023-09-19T07:13:40;13.30;78.80
71668;DHT22;59504;54.806;9.640;2023-09-19T07:16:00;13.30;78.60
71668;DHT22;59504;54.806;9.640;2023-09-19T07:18:21;13.40;78.80
71668;DHT22;59504;54.806;9.640;2023-09-19T07:20:45;13.50;78.90
71668;DHT22;59504;54.806;9.640;2023-09-19T07:23:09;13.40;78.70
71668;DHT22;59504;54.806;9.640;2023-09-19T07:25:30;13.50;78.60
71668;DHT22;59504;54.806;9.640;2023-09-19T07:27:30;13.50;78.70
71668;DHT22;59504;54.806;9.640;2023-09-19T07:29:51;13.50;78.60
71668;DHT22;59504;54.806;9.640;2023-09-19T07:32:11;13.50;78.50
71668;DHT22;59504;54.806;9.640;2023-09-19T07:34:33;13.60;78.50
71668;DHT22;59504;54.806;9.640;2023-09-19T07:36:54;13.50;78.20
71668;DHT22;59504;54.806;9.640;2023-09-19T07:39:14;13.50;78.10
71668;DHT22;59504;54.806;9.640;2023-09-19T07:41:35;13.50;78.10
71668;DHT22;59504;54.806;9.640;2023-09-19T07:43:55;13.50;77.90
71668;DHT22;59504;54.806;9.640;2023-09-19T07:46:17;13.60;77.70
71668;DHT22;59504;54.806;9.640;2023-09-19T07:48:37;13.60;77.80
71668;DHT22;59504;54.806;9.640;2023-09-19T07:51:04;13.60;77.60
71668;DHT22;59504;54.806;9.640;2023-09-19T07:53:25;13.60;77.60
71668;DHT22;59504;54.806;9.640;2023-09-19T07:55:46;13.70;77.40
71668;DHT22;59504;54.806;9.640;2023-09-19T07:58:08;13.70;77.20
71668;DHT22;59504;54.806;9.640;2023-09-19T08:00:28;13.80;77.30
71668;DHT22;59504;54.806;9.640;2023-09-19T08:02:49;13.70;77.40
71668;DHT22;59504;54.806;9.640;2023-09-19T08:05:10;13.80;77.30
71668;DHT22;59504;54.806;9.640;2023-09-19T08:07:20;13.80;77.40
71668;DHT22;59504;54.806;9.640;2023-09-19T08:09:23;13.90;78.20
71668;DHT22;59504;54.806;9.640;2023-09-19T08:11:39;13.90;77.60
71668;DHT22;59504;54.806;9.640;2023-09-19T08:13:59;14.00;77.60
71668;DHT22;59504;54.806;9.640;2023-09-19T08:16:01;14.00;77.50
71668;DHT22;59504;54.806;9.640;2023-09-19T08:18:03;14.10;77.60
71668;DHT22;59504;54.806;9.640;2023-09-19T08:20:04;14.10;77.60
71668;DHT22;59504;54.806;9.640;2023-09-19T08:22:05;14.20;77.60
71668;DHT22;59504;54.806;9.640;2023-09-19T08:24:06;14.30;77.80
71668;DHT22;59504;54.806;9.640;2023-09-19T08:26:07;14.30;77.80
71668;DHT22;59504;54.806;9.640;2023-09-19T08:28:08;14.40;78.00
71668;DHT22;59504;54.806;9.640;2023-09-19T08:30:12;14.50;78.00
71668;DHT22;59504;54.806;9.640;2023-09-19T08:32:12;14.60;78.00
71668;DHT22;59504;54.806;9.640;2023-09-19T08:34:13;14.70;78.00
71668;DHT22;59504;54.806;9.640;2023-09-19T08:36:14;14.80;78.10
71668;DHT22;59504;54.806;9.640;2023-09-19T08:38:15;14.80;77.90
71668;DHT22;59504;54.806;9.640;2023-09-19T08:40:18;14.90;77.90
71668;DHT22;59504;54.806;9.640;2023-09-19T08:42:18;15.00;77.80
71668;DHT22;59504;54.806;9.640;2023-09-19T08:44:21;15.10;77.60
71668;DHT22;59504;54.806;9.640;2023-09-19T08:46:22;15.20;77.50
71668;DHT22;59504;54.806;9.640;2023-09-19T08:48:26;15.30;77.50
71668;DHT22;59504;54.806;9.640;2023-09-19T08:50:28;15.30;77.50
71668;DHT22;59504;54.806;9.640;2023-09-19T08:52:32;15.40;77.50
71668;DHT22;59504;54.806;9.640;2023-09-19T08:54:38;15.40;77.70
71668;DHT22;59504;54.806;9.640;2023-09-19T08:56:40;15.50;78.00
71668;DHT22;59504;54.806;9.640;2023-09-19T08:58:59;15.60;78.20
71668;DHT22;59504;54.806;9.640;2023-09-19T09:01:00;15.70;77.90
71668;DHT22;59504;54.806;9.640;2023-09-19T09:03:02;15.80;77.50
71668;DHT22;59504;54.806;9.640;2023-09-19T09:05:04;15.80;77.10
71668;DHT22;59504;54.806;9.640;2023-09-19T09:07:13;15.90;76.30
71668;DHT22;59504;54.806;9.640;2023-09-19T09:09:13;15.90;75.40
71668;DHT22;59504;54.806;9.640;2023-09-19T09:11:35;16.00;75.50
71668;DHT22;59504;54.806;9.640;2023-09-19T09:13:47;16.00;75.10
71668;DHT22;59504;54.806;9.640;2023-09-19T09:16:07;16.00;75.20
71668;DHT22;59504;54.806;9.640;2023-09-19T09:18:30;16.00;75.00
71668;DHT22;59504;54.806;9.640;2023-09-19T09:20:50;16.10;75.00
71668;DHT22;59504;54.806;9.640;2023-09-19T09:23:12;16.10;75.00
71668;DHT22;59504;54.806;9.640;2023-09-19T09:25:53;16.20;75.10
71668;DHT22;59504;54.806;9.640;2023-09-19T09:28:21;16.10;75.10
71668;DHT22;59504;54.806;9.640;2023-09-19T09:30:42;16.10;75.00
71668;DHT22;59504;54.806;9.640;2023-09-19T09:33:09;16.20;74.80
71668;DHT22;59504;54.806;9.640;2023-09-19T09:35:33;16.20;74.50
71668;DHT22;59504;54.806;9.640;2023-09-19T09:37:59;16.30;73.80
71668;DHT22;59504;54.806;9.640;2023-09-19T09:40:23;16.20;73.70
71668;DHT22;59504;54.806;9.640;2023-09-19T09:42:56;16.20;73.60
71668;DHT22;59504;54.806;9.640;2023-09-19T09:47:48;16.20;72.90
71668;DHT22;59504;54.806;9.640;2023-09-19T09:50:28;16.10;72.60
71668;DHT22;59504;54.806;9.640;2023-09-19T09:52:56;16.10;72.60
71668;DHT22;59504;54.806;9.640;2023-09-19T09:55:26;16.20;73.20
71668;DHT22;59504;54.806;9.640;2023-09-19T09:57:37;16.20;73.30
71668;DHT22;59504;54.806;9.640;2023-09-19T09:59:51;16.20;73.10
71668;DHT22;59504;54.806;9.640;2023-09-19T10:01:55;16.20;73.10
71668;DHT22;59504;54.806;9.640;2023-09-19T10:03:57;16.20;73.10
71668;DHT22;59504;54.806;9.640;2023-09-19T10:05:58;16.20;73.10
71668;DHT22;59504;54.806;9.640;2023-09-19T10:07:59;16.30;72.80
71668;DHT22;59504;54.806;9.640;2023-09-19T10:10:11;16.20;72.30
71668;DHT22;59504;54.806;9.640;2023-09-19T10:12:24;16.10;72.60
71668;DHT22;59504;54.806;9.640;2023-09-19T10:14:29;16.10;72.40
71668;DHT22;59504;54.806;9.640;2023-09-19T10:16:32;16.10;72.10
71668;DHT22;59504;54.806;9.640;2023-09-19T10:18:33;16.10;72.30
71668;DHT22;59504;54.806;9.640;2023-09-19T10:20:37;16.00;72.00
71668;DHT22;59504;54.806;9.640;2023-09-19T10:22:38;16.00;72.30
71668;DHT22;59504;54.806;9.640;2023-09-19T10:24:42;15.90;72.20
71668;DHT22;59504;54.806;9.640;2023-09-19T10:26:45;15.90;72.30
71668;DHT22;59504;54.806;9.640;2023-09-19T10:28:46;15.90;72.50
71668;DHT22;59504;54.806;9.640;2023-09-19T10:30:51;15.80;72.70
71668;DHT22;59504;54.806;9.640;2023-09-19T10:32:57;15.80;72.80
71668;DHT22;59504;54.806;9.640;2023-09-19T10:34:58;15.80;73.00
71668;DHT22;59504;54.806;9.640;2023-09-19T10:37:02;15.70;73.00
71668;DHT22;59504;54.806;9.640;2023-09-19T10:39:07;15.70;73.20
71668;DHT22;59504;54.806;9.640;2023-09-19T10:41:29;15.60;73.00
71668;DHT22;59504;54.806;9.640;2023-09-19T10:43:30;15.70;73.10
71668;DHT22;59504;54.806;9.640;2023-09-19T10:45:40;15.70;73.30
71668;DHT22;59504;54.806;9.640;2023-09-19T10:47:59;15.60;73.50
71668;DHT22;59504;54.806;9.640;2023-09-19T10:50:00;15.60;74.40
71668;DHT22;59504;54.806;9.640;2023-09-19T10:52:22;15.60;74.10
71668;DHT22;59504;54.806;9.640;2023-09-19T10:54:25;15.70;74.80
71668;DHT22;59504;54.806;9.640;2023-09-19T10:56:50;15.70;75.70
71668;DHT22;59504;54.806;9.640;2023-09-19T10:58:53;15.60;75.80
71668;DHT22;59504;54.806;9.640;2023-09-19T11:01:40;15.70;76.20
71668;DHT22;59504;54.806;9.640;2023-09-19T11:03:42;15.80;76.70
71668;DHT22;59504;54.806;9.640;2023-09-19T11:06:06;15.80;77.40
71668;DHT22;59504;54.806;9.640;2023-09-19T11:08:30;15.90;77.30
71668;DHT22;59504;54.806;9.640;2023-09-19T11:10:52;16.00;77.50
71668;DHT22;59504;54.806;9.640;2023-09-19T11:13:26;16.00;77.50
71668;DHT22;59504;54.806;9.640;2023-09-19T11:21:38;16.30;76.60
71668;DHT22;59504;54.806;9.640;2023-09-19T11:23:23;16.30;76.10
71668;DHT22;59504;54.806;9.640;2023-09-19T11:27:37;16.40;75.40
71668;DHT22;59504;54.806;9.640;2023-09-19T11:32:28;16.50;74.60
71668;DHT22;59504;54.806;9.640;2023-09-19T11:34:42;16.60;74.40
71668;DHT22;59504;54.806;9.640;2023-09-19T11:36:46;16.70;73.70
71668;DHT22;59504;54.806;9.640;2023-09-19T11:41:11;16.80;72.70
71668;DHT22;59504;54.806;9.640;2023-09-19T11:43:30;16.80;73.00
71668;DHT22;59504;54.806;9.640;2023-09-19T11:46:04;16.80;72.30
71668;DHT22;59504;54.806;9.640;2023-09-19T11:47:58;16.90;72.50
71668;DHT22;59504;54.806;9.640;2023-09-19T11:50:18;16.90;70.50
71668;DHT22;59504;54.806;9.640;2023-09-19T11:52:42;17.00;70.90
71668;DHT22;59504;54.806;9.640;2023-09-19T11:55:04;16.90;70.30
71668;DHT22;59504;54.806;9.640;2023-09-19T11:57:25;16.90;69.70
71668;DHT22;59504;54.806;9.640;2023-09-19T11:59:46;16.90;69.60
71668;DHT22;59504;54.806;9.640;2023-09-19T12:01:52;16.90;69.10
71668;DHT22;59504;54.806;9.640;2023-09-19T12:04:01;16.80;70.00
71668;DHT22;59504;54.806;9.640;2023-09-19T12:06:11;16.80;69.70
71668;DHT22;59504;54.806;9.640;2023-09-19T12:08:14;16.70;70.10
71668;DHT22;59504;54.806;9.640;2023-09-19T12:10:16;16.80;70.70
71668;DHT22;59504;54.806;9.640;2023-09-19T12:12:25;16.70;70.80
71668;DHT22;59504;54.806;9.640;2023-09-19T12:14:28;16.70;70.90
71668;DHT22;59504;54.806;9.640;2023-09-19T12:16:29;16.70;71.10
71668;DHT22;59504;54.806;9.640;2023-09-19T12:18:36;16.80;71.40
71668;DHT22;59504;54.806;9.640;2023-09-19T12:20:45;16.70;71.40
71668;DHT22;59504;54.806;9.640;2023-09-19T12:22:51;16.60;71.60
71668;DHT22;59504;54.806;9.640;2023-09-19T12:24:52;16.70;72.00
71668;DHT22;59504;54.806;9.640;2023-09-19T12:26:59;16.70;71.90
71668;DHT22;59504;54.806;9.640;2023-09-19T12:29:02;16.70;71.70
71668;DHT22;59504;54.806;9.640;2023-09-19T12:31:08;16.70;71.60
71668;DHT22;59504;54.806;9.640;2023-09-19T12:33:17;16.70;71.70
71668;DHT22;59504;54.806;9.640;2023-09-19T12:35:29;16.70;71.30
71668;DHT22;59504;54.806;9.640;2023-09-19T12:37:30;16.70;71.00
71668;DHT22;59504;54.806;9.640;2023-09-19T12:39:31;16.70;70.80
71668;DHT22;59504;54.806;9.640;2023-09-19T12:41:32;16.70;70.10
71668;DHT22;59504;54.806;9.640;2023-09-19T12:43:32;16.70;70.70
71668;DHT22;59504;54.806;9.640;2023-09-19T12:45:43;16.70;70.20
71668;DHT22;59504;54.806;9.640;2023-09-19T12:50:08;16.80;69.70
71668;DHT22;59504;54.806;9.640;2023-09-19T12:52:13;16.80;69.50
71668;DHT22;59504;54.806;9.640;2023-09-19T12:54:14;16.80;69.90
71668;DHT22;59504;54.806;9.640;2023-09-19T12:56:18;16.90;69.50
71668;DHT22;59504;54.806;9.640;2023-09-19T12:58:19;16.90;68.80
71668;DHT22;59504;54.806;9.640;2023-09-19T13:00:20;16.90;68.80
71668;DHT22;59504;54.806;9.640;2023-09-19T13:02:24;16.90;69.10
71668;DHT22;59504;54.806;9.640;2023-09-19T13:04:26;16.90;67.90
71668;DHT22;59504;54.806;9.640;2023-09-19T13:06:35;17.00;67.90
71668;DHT22;59504;54.806;9.640;2023-09-19T13:09:08;16.90;67.60
71668;DHT22;59504;54.806;9.640;2023-09-19T13:11:35;17.00;68.40
71668;DHT22;59504;54.806;9.640;2023-09-19T13:16:00;17.00;68.40
71668;DHT22;59504;54.806;9.640;2023-09-19T13:18:21;17.00;68.30
71668;DHT22;59504;54.806;9.640;2023-09-19T13:20:43;17.10;67.90
71668;DHT22;59504;54.806;9.640;2023-09-19T13:23:27;17.00;67.90
71668;DHT22;59504;54.806;9.640;2023-09-19T13:25:48;17.00;67.80
71668;DHT22;59504;54.806;9.640;2023-09-19T13:28:09;17.00;67.80
71668;DHT22;59504;54.806;9.640;2023-09-19T13:30:36;17.10;68.00
71668;DHT22;59504;54.806;9.640;2023-09-19T13:33:09;17.10;67.90
71668;DHT22;59504;54.806;9.640;2023-09-19T13:35:30;17.10;68.00
71668;DHT22;59504;54.806;9.640;2023-09-19T13:37:51;17.20;68.40
71668;DHT22;59504;54.806;9.640;2023-09-19T13:39:52;17.20;68.60
71668;DHT22;59504;54.806;9.640;2023-09-19T13:41:54;17.20;67.70
71668;DHT22;59504;54.806;9.640;2023-09-19T13:43:55;17.20;67.70
71668;DHT22;59504;54.806;9.640;2023-09-19T13:45:57;17.30;67.60
71668;DHT22;59504;54.806;9.640;2023-09-19T13:47:58;17.30;66.90
71668;DHT22;59504;54.806;9.640;2023-09-19T13:50:02;17.20;67.00
71668;DHT22;59504;54.806;9.640;2023-09-19T13:52:07;17.20;67.10
71668;DHT22;59504;54.806;9.640;2023-09-19T13:54:09;17.20;67.20
71668;DHT22;59504;54.806;9.640;2023-09-19T13:56:09;17.20;67.10
71668;DHT22;59504;54.806;9.640;2023-09-19T13:58:10;17.20;66.40
71668;DHT22;59504;54.806;9.640;2023-09-19T14:00:12;17.20;67.10
71668;DHT22;59504;54.806;9.640;2023-09-19T14:02:16;17.20;66.70
71668;DHT22;59504;54.806;9.640;2023-09-19T14:04:26;17.20;67.10
71668;DHT22;59504;54.806;9.640;2023-09-19T14:06:29;17.20;67.10
71668;DHT22;59504;54.806;9.640;2023-09-19T14:08:30;17.20;66.60
71668;DHT22;59504;54.806;9.640;2023-09-19T14:10:31;17.30;66.00
71668;DHT22;59504;54.806;9.640;2023-09-19T14:12:32;17.20;65.80
71668;DHT22;59504;54.806;9.640;2023-09-19T14:14:32;17.20;65.30
71668;DHT22;59504;54.806;9.640;2023-09-19T14:16:33;17.30;66.20
71668;DHT22;59504;54.806;9.640;2023-09-19T14:18:37;17.20;66.30
71668;DHT22;59504;54.806;9.640;2023-09-19T14:20:38;17.20;66.30
71668;DHT22;59504;54.806;9.640;2023-09-19T14:22:40;17.20;66.50
71668;DHT22;59504;54.806;9.640;2023-09-19T14:24:41;17.10;66.30
71668;DHT22;59504;54.806;9.640;2023-09-19T14:26:42;17.20;65.90
71668;DHT22;59504;54.806;9.640;2023-09-19T14:28:42;17.10;65.70
71668;DHT22;59504;54.806;9.640;2023-09-19T14:30:43;17.20;66.00
71668;DHT22;59504;54.806;9.640;2023-09-19T14:32:44;17.10;65.90
71668;DHT22;59504;54.806;9.640;2023-09-19T14:34:45;17.10;65.90
71668;DHT22;59504;54.806;9.640;2023-09-19T14:36:46;17.10;65.70
71668;DHT22;59504;54.806;9.640;2023-09-19T14:38:47;17.10;65.60
71668;DHT22;59504;54.806;9.640;2023-09-19T14:41:04;17.10;65.30
71668;DHT22;59504;54.806;9.640;2023-09-19T14:43:05;17.10;65.00